sensor_id;sensor_type;location;lat;lon;timestamp;P1;durP1;ratioP1;P2;durP2;ratioP2
45684;SDS011;46836;48.388;16.210;2024-01-07T00:00:09;6.57;;;5.03;;
45684;SDS011;46836;48.388;16.210;2024-01-07T00:02:37;5.22;;;4.68;;
45684;SDS011;46836;48.388;16.210;2024-01-07T00:05:04;6.30;;;4.53;;
45684;SDS011;46836;48.388;16.210;2024-01-07T00:07:31;4.80;;;4.28;;
45684;SDS011;46836;48.388;16.210;2024-01-07T00:09:58;5.70;;;4.60;;
45684;SDS011;46836;48.388;16.210;2024-01-07T00:12:26;4.93;;;4.22;;
45684;SDS011;46836;48.388;16.210;2024-01-07T00:14:53;5.20;;;4.70;;
45684;SDS011;46836;48.388;16.210;2024-01-07T00:17:20;5.28;;;4.78;;
45684;SDS011;46836;48.388;16.210;2024-01-07T00:19:47;5.38;;;4.70;;
45684;SDS011;46836;48.388;16.210;2024-01-07T00:22:14;5.40;;;4.35;;
45684;SDS011;46836;48.388;16.210;2024-01-07T00:24:41;6.65;;;4.30;;
45684;SDS011;46836;48.388;16.210;2024-01-07T00:27:08;5.70;;;4.18;;
45684;SDS011;46836;48.388;16.210;2024-01-07T00:29:35;6.90;;;5.20;;
45684;SDS011;46836;48.388;16.210;2024-01-07T00:32:03;5.80;;;5.07;;
45684;SDS011;46836;48.388;16.210;2024-01-07T00:34:30;5.28;;;4.78;;
45684;SDS011;46836;48.388;16.210;2024-01-07T00:36:58;7.35;;;4.75;;
45684;SDS011;46836;48.388;16.210;2024-01-07T00:39:25;5.72;;;4.80;;
45684;SDS011;46836;48.388;16.210;2024-01-07T00:41:52;7.68;;;5.50;;
45684;SDS011;46836;48.388;16.210;2024-01-07T00:44:19;6.00;;;5.40;;
45684;SDS011;46836;48.388;16.210;2024-01-07T00:46:46;5.85;;;5.13;;
45684;SDS011;46836;48.388;16.210;2024-01-07T00:49:14;8.57;;;5.70;;
45684;SDS011;46836;48.388;16.210;2024-01-07T00:51:42;6.35;;;5.68;;
45684;SDS011;46836;48.388;16.210;2024-01-07T00:54:09;7.47;;;5.75;;
45684;SDS011;46836;48.388;16.210;2024-01-07T00:56:36;7.32;;;5.70;;
45684;SDS011;46836;48.388;16.210;2024-01-07T00:59:03;8.23;;;6.00;;
45684;SDS011;46836;48.388;16.210;2024-01-07T01:01:31;7.65;;;6.10;;
45684;SDS011;46836;48.388;16.210;2024-01-07T01:03:58;7.25;;;6.55;;
45684;SDS011;46836;48.388;16.210;2024-01-07T01:06:25;9.43;;;7.15;;
45684;SDS011;46836;48.388;16.210;2024-01-07T01:08:52;7.72;;;6.93;;
45684;SDS011;46836;48.388;16.210;2024-01-07T01:11:19;8.27;;;6.85;;
45684;SDS011;46836;48.388;16.210;2024-01-07T01:13:46;8.38;;;6.40;;
45684;SDS011;46836;48.388;16.210;2024-01-07T01:16:13;7.45;;;6.63;;
45684;SDS011;46836;48.388;16.210;2024-01-07T01:18:40;7.65;;;6.32;;
45684;SDS011;46836;48.388;16.210;2024-01-07T01:21:07;6.65;;;5.57;;
45684;SDS011;46836;48.388;16.210;2024-01-07T01:23:35;8.30;;;6.32;;
45684;SDS011;46836;48.388;16.210;2024-01-07T01:26:02;9.30;;;6.28;;
45684;SDS011;46836;48.388;16.210;2024-01-07T01:28:29;7.35;;;6.65;;
45684;SDS011;46836;48.388;16.210;2024-01-07T01:30:56;8.63;;;7.05;;
45684;SDS011;46836;48.388;16.210;2024-01-07T01:33:24;9.20;;;7.85;;
45684;SDS011;46836;48.388;16.210;2024-01-07T01:35:51;10.18;;;7.60;;
45684;SDS011;46836;48.388;16.210;2024-01-07T01:38:18;9.23;;;7.32;;
45684;SDS011;46836;48.388;16.210;2024-01-07T01:40:52;9.43;;;7.40;;
45684;SDS011;46836;48.388;16.210;2024-01-07T01:43:23;10.32;;;7.80;;
45684;SDS011;46836;48.388;16.210;2024-01-07T01:45:55;10.02;;;7.93;;
45684;SDS011;46836;48.388;16.210;2024-01-07T01:48:23;7.43;;;5.97;;
45684;SDS011;46836;48.388;16.210;2024-01-07T01:50:52;10.23;;;7.05;;
45684;SDS011;46836;48.388;16.210;2024-01-07T01:53:20;8.70;;;6.88;;
45684;SDS011;46836;48.388;16.210;2024-01-07T01:55:47;12.30;;;7.10;;
45684;SDS011;46836;48.388;16.210;2024-01-07T01:58:15;9.30;;;7.15;;
45684;SDS011;46836;48.388;16.210;2024-01-07T02:00:44;12.23;;;7.95;;
45684;SDS011;46836;48.388;16.210;2024-01-07T02:03:11;10.35;;;7.10;;
45684;SDS011;46836;48.388;16.210;2024-01-07T02:05:39;9.75;;;7.28;;
45684;SDS011;46836;48.388;16.210;2024-01-07T02:08:07;9.32;;;6.82;;
45684;SDS011;46836;48.388;16.210;2024-01-07T02:10:34;9.07;;;7.50;;
45684;SDS011;46836;48.388;16.210;2024-01-07T02:13:06;9.05;;;7.05;;
45684;SDS011;46836;48.388;16.210;2024-01-07T02:15:33;9.82;;;7.60;;
45684;SDS011;46836;48.388;16.210;2024-01-07T02:18:01;10.05;;;7.63;;
45684;SDS011;46836;48.388;16.210;2024-01-07T02:20:28;9.23;;;7.65;;
45684;SDS011;46836;48.388;16.210;2024-01-07T02:22:55;8.15;;;7.28;;
45684;SDS011;46836;48.388;16.210;2024-01-07T02:25:25;8.25;;;7.07;;
45684;SDS011;46836;48.388;16.210;2024-01-07T02:27:52;9.75;;;7.10;;
45684;SDS011;46836;48.388;16.210;2024-01-07T02:30:19;8.50;;;7.40;;
45684;SDS011;46836;48.388;16.210;2024-01-07T02:32:46;9.80;;;7.35;;
45684;SDS011;46836;48.388;16.210;2024-01-07T02:35:14;9.85;;;7.22;;
45684;SDS011;46836;48.388;16.210;2024-01-07T02:37:41;8.93;;;7.07;;
45684;SDS011;46836;48.388;16.210;2024-01-07T02:40:08;9.70;;;6.47;;
45684;SDS011;46836;48.388;16.210;2024-01-07T02:42:36;9.25;;;7.30;;
45684;SDS011;46836;48.388;16.210;2024-01-07T02:45:03;10.73;;;7.35;;
45684;SDS011;46836;48.388;16.210;2024-01-07T02:47:30;11.77;;;7.68;;
45684;SDS011;46836;48.388;16.210;2024-01-07T02:49:57;9.25;;;7.55;;
45684;SDS011;46836;48.388;16.210;2024-01-07T02:52:24;8.52;;;7.55;;
45684;SDS011;46836;48.388;16.210;2024-01-07T02:54:51;9.43;;;7.38;;
45684;SDS011;46836;48.388;16.210;2024-01-07T02:57:18;10.07;;;6.80;;
45684;SDS011;46836;48.388;16.210;2024-01-07T02:59:45;8.73;;;6.80;;
45684;SDS011;46836;48.388;16.210;2024-01-07T03:02:12;9.98;;;6.45;;
45684;SDS011;46836;48.388;16.210;2024-01-07T03:04:39;10.38;;;7.70;;
45684;SDS011;46836;48.388;16.210;2024-01-07T03:07:06;9.02;;;7.10;;
45684;SDS011;46836;48.388;16.210;2024-01-07T03:09:34;9.35;;;6.80;;
45684;SDS011;46836;48.388;16.210;2024-01-07T03:12:01;10.10;;;6.97;;
45684;SDS011;46836;48.388;16.210;2024-01-07T03:14:28;6.82;;;6.00;;
45684;SDS011;46836;48.388;16.210;2024-01-07T03:16:55;9.80;;;7.38;;
45684;SDS011;46836;48.388;16.210;2024-01-07T03:19:22;9.18;;;7.10;;
45684;SDS011;46836;48.388;16.210;2024-01-07T03:21:50;10.02;;;7.25;;
45684;SDS011;46836;48.388;16.210;2024-01-07T03:24:17;8.40;;;6.40;;
45684;SDS011;46836;48.388;16.210;2024-01-07T03:26:44;9.82;;;7.88;;
45684;SDS011;46836;48.388;16.210;2024-01-07T03:29:11;10.55;;;7.38;;
45684;SDS011;46836;48.388;16.210;2024-01-07T03:31:38;8.65;;;7.15;;
45684;SDS011;46836;48.388;16.210;2024-01-07T03:34:05;10.50;;;7.57;;
45684;SDS011;46836;48.388;16.210;2024-01-07T03:36:32;8.60;;;7.40;;
45684;SDS011;46836;48.388;16.210;2024-01-07T03:38:59;8.07;;;7.13;;
45684;SDS011;46836;48.388;16.210;2024-01-07T03:41:27;14.10;;;7.90;;
45684;SDS011;46836;48.388;16.210;2024-01-07T03:43:54;11.75;;;8.40;;
45684;SDS011;46836;48.388;16.210;2024-01-07T03:46:23;11.07;;;8.43;;
45684;SDS011;46836;48.388;16.210;2024-01-07T03:48:50;9.00;;;7.55;;
45684;SDS011;46836;48.388;16.210;2024-01-07T03:51:17;9.55;;;7.15;;
45684;SDS011;46836;48.388;16.210;2024-01-07T03:53:44;10.73;;;7.85;;
45684;SDS011;46836;48.388;16.210;2024-01-07T03:56:11;10.05;;;7.78;;
45684;SDS011;46836;48.388;16.210;2024-01-07T03:58:38;9.48;;;7.70;;
45684;SDS011;46836;48.388;16.210;2024-01-07T04:01:05;9.35;;;7.38;;
45684;SDS011;46836;48.388;16.210;2024-01-07T04:03:32;9.07;;;7.40;;
45684;SDS011;46836;48.388;16.210;2024-01-07T04:05:59;10.15;;;8.00;;
45684;SDS011;46836;48.388;16.210;2024-01-07T04:08:27;7.30;;;6.03;;
45684;SDS011;46836;48.388;16.210;2024-01-07T04:10:54;9.88;;;7.30;;
45684;SDS011;46836;48.388;16.210;2024-01-07T04:13:22;11.52;;;8.23;;
45684;SDS011;46836;48.388;16.210;2024-01-07T04:15:49;9.02;;;6.88;;
45684;SDS011;46836;48.388;16.210;2024-01-07T04:18:16;8.70;;;7.20;;
45684;SDS011;46836;48.388;16.210;2024-01-07T04:20:43;10.43;;;8.00;;
45684;SDS011;46836;48.388;16.210;2024-01-07T04:23:10;10.27;;;7.93;;
45684;SDS011;46836;48.388;16.210;2024-01-07T04:25:37;7.53;;;6.05;;
45684;SDS011;46836;48.388;16.210;2024-01-07T04:28:04;9.52;;;7.13;;
45684;SDS011;46836;48.388;16.210;2024-01-07T04:30:31;9.15;;;7.00;;
45684;SDS011;46836;48.388;16.210;2024-01-07T04:32:59;7.15;;;5.80;;
45684;SDS011;46836;48.388;16.210;2024-01-07T04:35:26;8.13;;;6.25;;
45684;SDS011;46836;48.388;16.210;2024-01-07T04:37:52;6.95;;;6.18;;
45684;SDS011;46836;48.388;16.210;2024-01-07T04:40:20;11.07;;;6.40;;
45684;SDS011;46836;48.388;16.210;2024-01-07T04:42:47;9.50;;;7.30;;
45684;SDS011;46836;48.388;16.210;2024-01-07T04:45:14;9.75;;;7.18;;
45684;SDS011;46836;48.388;16.210;2024-01-07T04:47:41;9.52;;;7.18;;
45684;SDS011;46836;48.388;16.210;2024-01-07T04:50:08;8.73;;;7.10;;
45684;SDS011;46836;48.388;16.210;2024-01-07T04:52:35;9.82;;;7.03;;
45684;SDS011;46836;48.388;16.210;2024-01-07T04:55:02;8.68;;;6.93;;
45684;SDS011;46836;48.388;16.210;2024-01-07T04:57:29;9.38;;;6.78;;
45684;SDS011;46836;48.388;16.210;2024-01-07T04:59:56;10.07;;;6.00;;
45684;SDS011;46836;48.388;16.210;2024-01-07T05:02:23;7.90;;;6.00;;
45684;SDS011;46836;48.388;16.210;2024-01-07T05:04:50;11.18;;;6.55;;
45684;SDS011;46836;48.388;16.210;2024-01-07T05:07:17;8.18;;;7.35;;
45684;SDS011;46836;48.388;16.210;2024-01-07T05:09:45;12.18;;;7.25;;
45684;SDS011;46836;48.388;16.210;2024-01-07T05:12:12;5.95;;;5.20;;
45684;SDS011;46836;48.388;16.210;2024-01-07T05:14:40;11.43;;;8.18;;
45684;SDS011;46836;48.388;16.210;2024-01-07T05:17:09;8.40;;;6.63;;
45684;SDS011;46836;48.388;16.210;2024-01-07T05:19:36;8.65;;;6.65;;
45684;SDS011;46836;48.388;16.210;2024-01-07T05:22:06;5.88;;;5.13;;
45684;SDS011;46836;48.388;16.210;2024-01-07T05:24:33;9.60;;;6.40;;
45684;SDS011;46836;48.388;16.210;2024-01-07T05:27:02;9.05;;;6.55;;
45684;SDS011;46836;48.388;16.210;2024-01-07T05:29:30;6.53;;;5.22;;
45684;SDS011;46836;48.388;16.210;2024-01-07T05:31:57;8.27;;;7.05;;
45684;SDS011;46836;48.388;16.210;2024-01-07T05:34:27;8.02;;;6.95;;
45684;SDS011;46836;48.388;16.210;2024-01-07T05:36:54;8.65;;;6.60;;
45684;SDS011;46836;48.388;16.210;2024-01-07T05:39:21;6.35;;;5.10;;
45684;SDS011;46836;48.388;16.210;2024-01-07T05:41:48;9.45;;;6.50;;
45684;SDS011;46836;48.388;16.210;2024-01-07T05:44:15;8.20;;;6.18;;
45684;SDS011;46836;48.388;16.210;2024-01-07T05:46:42;8.57;;;6.40;;
45684;SDS011;46836;48.388;16.210;2024-01-07T05:49:09;11.63;;;7.20;;
45684;SDS011;46836;48.388;16.210;2024-01-07T05:51:40;9.45;;;6.93;;
45684;SDS011;46836;48.388;16.210;2024-01-07T05:54:08;9.45;;;6.63;;
45684;SDS011;46836;48.388;16.210;2024-01-07T05:56:38;9.90;;;6.85;;
45684;SDS011;46836;48.388;16.210;2024-01-07T05:59:07;10.02;;;7.80;;
45684;SDS011;46836;48.388;16.210;2024-01-07T06:01:34;8.60;;;6.80;;
45684;SDS011;46836;48.388;16.210;2024-01-07T06:04:01;6.93;;;5.78;;
45684;SDS011;46836;48.388;16.210;2024-01-07T06:06:29;9.55;;;7.65;;
45684;SDS011;46836;48.388;16.210;2024-01-07T06:08:56;10.10;;;6.47;;
45684;SDS011;46836;48.388;16.210;2024-01-07T06:11:23;6.95;;;5.90;;
45684;SDS011;46836;48.388;16.210;2024-01-07T06:13:50;8.80;;;6.35;;
45684;SDS011;46836;48.388;16.210;2024-01-07T06:16:17;8.20;;;6.90;;
45684;SDS011;46836;48.388;16.210;2024-01-07T06:18:45;10.25;;;7.18;;
45684;SDS011;46836;48.388;16.210;2024-01-07T06:21:12;9.05;;;6.47;;
45684;SDS011;46836;48.388;16.210;2024-01-07T06:23:40;8.27;;;6.63;;
45684;SDS011;46836;48.388;16.210;2024-01-07T06:26:07;8.45;;;6.97;;
45684;SDS011;46836;48.388;16.210;2024-01-07T06:28:34;7.65;;;6.20;;
45684;SDS011;46836;48.388;16.210;2024-01-07T06:31:04;8.32;;;6.80;;
45684;SDS011;46836;48.388;16.210;2024-01-07T06:33:31;8.00;;;7.10;;
45684;SDS011;46836;48.388;16.210;2024-01-07T06:36:00;8.25;;;6.70;;
45684;SDS011;46836;48.388;16.210;2024-01-07T06:38:27;8.52;;;6.65;;
45684;SDS011;46836;48.388;16.210;2024-01-07T06:40:54;10.05;;;6.50;;
45684;SDS011;46836;48.388;16.210;2024-01-07T06:43:26;9.77;;;5.88;;
45684;SDS011;46836;48.388;16.210;2024-01-07T06:45:56;8.43;;;6.50;;
45684;SDS011;46836;48.388;16.210;2024-01-07T06:48:23;8.30;;;5.85;;
45684;SDS011;46836;48.388;16.210;2024-01-07T06:50:50;8.02;;;6.57;;
45684;SDS011;46836;48.388;16.210;2024-01-07T06:53:17;7.18;;;6.28;;
45684;SDS011;46836;48.388;16.210;2024-01-07T06:55:44;9.82;;;6.43;;
45684;SDS011;46836;48.388;16.210;2024-01-07T06:58:11;8.68;;;6.75;;
45684;SDS011;46836;48.388;16.210;2024-01-07T07:00:38;8.15;;;6.63;;
45684;SDS011;46836;48.388;16.210;2024-01-07T07:03:05;8.90;;;6.25;;
45684;SDS011;46836;48.388;16.210;2024-01-07T07:05:33;9.50;;;7.20;;
45684;SDS011;46836;48.388;16.210;2024-01-07T07:08:01;9.00;;;7.35;;
45684;SDS011;46836;48.388;16.210;2024-01-07T07:10:28;11.95;;;8.68;;
45684;SDS011;46836;48.388;16.210;2024-01-07T07:12:55;7.82;;;6.93;;
45684;SDS011;46836;48.388;16.210;2024-01-07T07:15:23;14.65;;;8.00;;
45684;SDS011;46836;48.388;16.210;2024-01-07T07:17:53;9.95;;;7.63;;
45684;SDS011;46836;48.388;16.210;2024-01-07T07:20:20;11.23;;;7.38;;
45684;SDS011;46836;48.388;16.210;2024-01-07T07:22:47;12.23;;;8.90;;
45684;SDS011;46836;48.388;16.210;2024-01-07T07:25:14;10.55;;;7.72;;
45684;SDS011;46836;48.388;16.210;2024-01-07T07:27:41;11.32;;;8.68;;
45684;SDS011;46836;48.388;16.210;2024-01-07T07:30:10;5.80;;;4.30;;
45684;SDS011;46836;48.388;16.210;2024-01-07T07:32:40;11.45;;;8.45;;
45684;SDS011;46836;48.388;16.210;2024-01-07T07:35:10;7.97;;;6.43;;
45684;SDS011;46836;48.388;16.210;2024-01-07T07:37:38;9.85;;;6.78;;
45684;SDS011;46836;48.388;16.210;2024-01-07T07:40:05;9.25;;;7.43;;
45684;SDS011;46836;48.388;16.210;2024-01-07T07:42:32;12.77;;;8.30;;
45684;SDS011;46836;48.388;16.210;2024-01-07T07:45:00;14.30;;;8.40;;
45684;SDS011;46836;48.388;16.210;2024-01-07T07:47:28;11.95;;;8.00;;
45684;SDS011;46836;48.388;16.210;2024-01-07T07:49:56;12.50;;;8.77;;
45684;SDS011;46836;48.388;16.210;2024-01-07T07:52:24;11.68;;;8.63;;
45684;SDS011;46836;48.388;16.210;2024-01-07T07:54:52;11.02;;;7.82;;
45684;SDS011;46836;48.388;16.210;2024-01-07T07:57:20;11.32;;;8.85;;
45684;SDS011;46836;48.388;16.210;2024-01-07T07:59:48;16.00;;;11.00;;
45684;SDS011;46836;48.388;16.210;2024-01-07T08:02:15;12.95;;;9.52;;
45684;SDS011;46836;48.388;16.210;2024-01-07T08:04:43;11.52;;;8.27;;
45684;SDS011;46836;48.388;16.210;2024-01-07T08:07:10;14.07;;;8.30;;
45684;SDS011;46836;48.388;16.210;2024-01-07T08:09:37;11.90;;;7.47;;
45684;SDS011;46836;48.388;16.210;2024-01-07T08:12:05;12.68;;;8.57;;
45684;SDS011;46836;48.388;16.210;2024-01-07T08:14:32;11.48;;;8.30;;
45684;SDS011;46836;48.388;16.210;2024-01-07T08:17:00;12.20;;;8.00;;
45684;SDS011;46836;48.388;16.210;2024-01-07T08:19:27;14.13;;;8.68;;
45684;SDS011;46836;48.388;16.210;2024-01-07T08:21:54;16.75;;;12.15;;
45684;SDS011;46836;48.388;16.210;2024-01-07T08:24:23;13.10;;;8.57;;
45684;SDS011;46836;48.388;16.210;2024-01-07T08:26:50;15.45;;;10.63;;
45684;SDS011;46836;48.388;16.210;2024-01-07T08:29:18;15.18;;;9.27;;
45684;SDS011;46836;48.388;16.210;2024-01-07T08:31:45;15.40;;;10.75;;
45684;SDS011;46836;48.388;16.210;2024-01-07T08:34:12;10.68;;;7.47;;
45684;SDS011;46836;48.388;16.210;2024-01-07T08:36:41;13.85;;;8.88;;
45684;SDS011;46836;48.388;16.210;2024-01-07T08:39:08;11.27;;;9.00;;
45684;SDS011;46836;48.388;16.210;2024-01-07T08:41:37;15.43;;;10.60;;
45684;SDS011;46836;48.388;16.210;2024-01-07T08:44:04;14.23;;;9.85;;
45684;SDS011;46836;48.388;16.210;2024-01-07T08:46:31;12.88;;;8.35;;
45684;SDS011;46836;48.388;16.210;2024-01-07T08:48:58;14.20;;;9.15;;
45684;SDS011;46836;48.388;16.210;2024-01-07T08:51:26;12.52;;;7.93;;
45684;SDS011;46836;48.388;16.210;2024-01-07T08:53:53;13.73;;;10.30;;
45684;SDS011;46836;48.388;16.210;2024-01-07T08:56:20;10.73;;;8.35;;
45684;SDS011;46836;48.388;16.210;2024-01-07T08:58:47;10.63;;;7.18;;
45684;SDS011;46836;48.388;16.210;2024-01-07T09:01:14;14.35;;;9.85;;
45684;SDS011;46836;48.388;16.210;2024-01-07T09:03:41;12.00;;;8.15;;
45684;SDS011;46836;48.388;16.210;2024-01-07T09:06:09;14.52;;;10.05;;
45684;SDS011;46836;48.388;16.210;2024-01-07T09:08:36;12.70;;;7.25;;
45684;SDS011;46836;48.388;16.210;2024-01-07T09:11:03;11.20;;;8.15;;
45684;SDS011;46836;48.388;16.210;2024-01-07T09:13:32;16.35;;;12.40;;
45684;SDS011;46836;48.388;16.210;2024-01-07T09:15:59;12.07;;;8.70;;
45684;SDS011;46836;48.388;16.210;2024-01-07T09:18:26;10.93;;;7.75;;
45684;SDS011;46836;48.388;16.210;2024-01-07T09:20:54;11.55;;;8.25;;
45684;SDS011;46836;48.388;16.210;2024-01-07T09:23:21;11.38;;;9.25;;
45684;SDS011;46836;48.388;16.210;2024-01-07T09:25:48;11.40;;;8.05;;
45684;SDS011;46836;48.388;16.210;2024-01-07T09:28:15;11.45;;;8.80;;
45684;SDS011;46836;48.388;16.210;2024-01-07T09:30:43;12.50;;;8.27;;
45684;SDS011;46836;48.388;16.210;2024-01-07T09:33:10;10.23;;;7.45;;
45684;SDS011;46836;48.388;16.210;2024-01-07T09:35:37;10.15;;;8.02;;
45684;SDS011;46836;48.388;16.210;2024-01-07T09:38:04;11.27;;;6.82;;
45684;SDS011;46836;48.388;16.210;2024-01-07T09:40:37;10.68;;;7.75;;
45684;SDS011;46836;48.388;16.210;2024-01-07T09:43:06;10.43;;;8.32;;
45684;SDS011;46836;48.388;16.210;2024-01-07T09:45:33;9.55;;;7.72;;
45684;SDS011;46836;48.388;16.210;2024-01-07T09:48:07;12.77;;;8.02;;
45684;SDS011;46836;48.388;16.210;2024-01-07T09:50:35;10.55;;;8.15;;
45684;SDS011;46836;48.388;16.210;2024-01-07T09:53:02;17.13;;;8.55;;
45684;SDS011;46836;48.388;16.210;2024-01-07T09:55:33;11.68;;;7.95;;
45684;SDS011;46836;48.388;16.210;2024-01-07T09:58:06;9.85;;;7.72;;
45684;SDS011;46836;48.388;16.210;2024-01-07T10:00:33;11.93;;;8.20;;
45684;SDS011;46836;48.388;16.210;2024-01-07T10:03:01;12.02;;;7.30;;
45684;SDS011;46836;48.388;16.210;2024-01-07T10:05:29;10.65;;;7.75;;
45684;SDS011;46836;48.388;16.210;2024-01-07T10:07:56;9.60;;;7.75;;
45684;SDS011;46836;48.388;16.210;2024-01-07T10:10:24;9.43;;;6.75;;
45684;SDS011;46836;48.388;16.210;2024-01-07T10:12:51;10.50;;;7.85;;
45684;SDS011;46836;48.388;16.210;2024-01-07T10:15:19;11.10;;;7.45;;
45684;SDS011;46836;48.388;16.210;2024-01-07T10:17:46;10.07;;;7.45;;
45684;SDS011;46836;48.388;16.210;2024-01-07T10:20:16;10.30;;;7.60;;
45684;SDS011;46836;48.388;16.210;2024-01-07T10:22:49;12.90;;;8.35;;
45684;SDS011;46836;48.388;16.210;2024-01-07T10:25:17;11.88;;;8.30;;
45684;SDS011;46836;48.388;16.210;2024-01-07T10:27:45;10.15;;;7.88;;
45684;SDS011;46836;48.388;16.210;2024-01-07T10:30:12;8.30;;;6.72;;
45684;SDS011;46836;48.388;16.210;2024-01-07T10:32:42;9.80;;;7.30;;
45684;SDS011;46836;48.388;16.210;2024-01-07T10:35:12;9.40;;;7.80;;
45684;SDS011;46836;48.388;16.210;2024-01-07T10:37:42;12.13;;;8.52;;
45684;SDS011;46836;48.388;16.210;2024-01-07T10:40:11;8.93;;;6.82;;
45684;SDS011;46836;48.388;16.210;2024-01-07T10:42:39;12.13;;;8.23;;
45684;SDS011;46836;48.388;16.210;2024-01-07T10:45:09;8.48;;;7.30;;
45684;SDS011;46836;48.388;16.210;2024-01-07T10:47:37;11.13;;;7.22;;
45684;SDS011;46836;48.388;16.210;2024-01-07T10:50:06;14.25;;;8.98;;
45684;SDS011;46836;48.388;16.210;2024-01-07T10:52:36;11.77;;;7.68;;
45684;SDS011;46836;48.388;16.210;2024-01-07T10:55:10;9.88;;;7.47;;
45684;SDS011;46836;48.388;16.210;2024-01-07T10:57:44;11.05;;;8.07;;
45684;SDS011;46836;48.388;16.210;2024-01-07T11:00:14;12.48;;;8.05;;
45684;SDS011;46836;48.388;16.210;2024-01-07T11:02:59;11.60;;;8.35;;
45684;SDS011;46836;48.388;16.210;2024-01-07T11:08:32;20.42;;;10.60;;
45684;SDS011;46836;48.388;16.210;2024-01-07T11:13:39;9.98;;;6.47;;
45684;SDS011;46836;48.388;16.210;2024-01-07T11:16:09;14.70;;;9.18;;
45684;SDS011;46836;48.388;16.210;2024-01-07T11:18:38;11.23;;;8.20;;
45684;SDS011;46836;48.388;16.210;2024-01-07T11:21:06;8.98;;;7.25;;
45684;SDS011;46836;48.388;16.210;2024-01-07T11:23:34;10.57;;;8.32;;
45684;SDS011;46836;48.388;16.210;2024-01-07T11:26:04;13.25;;;10.00;;
45684;SDS011;46836;48.388;16.210;2024-01-07T11:28:48;12.38;;;10.48;;
45684;SDS011;46836;48.388;16.210;2024-01-07T11:31:25;10.95;;;8.43;;
45684;SDS011;46836;48.388;16.210;2024-01-07T11:34:08;10.80;;;7.95;;
45684;SDS011;46836;48.388;16.210;2024-01-07T11:36:36;10.10;;;7.78;;
45684;SDS011;46836;48.388;16.210;2024-01-07T11:39:04;11.35;;;9.20;;
45684;SDS011;46836;48.388;16.210;2024-01-07T11:41:36;12.45;;;7.80;;
45684;SDS011;46836;48.388;16.210;2024-01-07T11:44:04;9.73;;;7.80;;
45684;SDS011;46836;48.388;16.210;2024-01-07T11:46:33;11.70;;;8.35;;
45684;SDS011;46836;48.388;16.210;2024-01-07T11:49:01;10.05;;;7.78;;
45684;SDS011;46836;48.388;16.210;2024-01-07T11:51:29;12.30;;;8.73;;
45684;SDS011;46836;48.388;16.210;2024-01-07T11:53:59;9.48;;;7.35;;
45684;SDS011;46836;48.388;16.210;2024-01-07T11:56:27;10.50;;;9.13;;
45684;SDS011;46836;48.388;16.210;2024-01-07T11:58:55;9.25;;;7.65;;
45684;SDS011;46836;48.388;16.210;2024-01-07T12:01:26;12.05;;;7.85;;
45684;SDS011;46836;48.388;16.210;2024-01-07T12:03:54;11.85;;;8.60;;
45684;SDS011;46836;48.388;16.210;2024-01-07T12:06:21;14.20;;;8.20;;
45684;SDS011;46836;48.388;16.210;2024-01-07T12:08:48;12.15;;;8.10;;
45684;SDS011;46836;48.388;16.210;2024-01-07T12:11:16;13.77;;;8.10;;
45684;SDS011;46836;48.388;16.210;2024-01-07T12:13:43;11.57;;;8.48;;
45684;SDS011;46836;48.388;16.210;2024-01-07T12:16:11;10.77;;;8.65;;
45684;SDS011;46836;48.388;16.210;2024-01-07T12:18:41;11.07;;;9.20;;
45684;SDS011;46836;48.388;16.210;2024-01-07T12:21:09;13.85;;;9.20;;
45684;SDS011;46836;48.388;16.210;2024-01-07T12:23:36;11.25;;;7.85;;
45684;SDS011;46836;48.388;16.210;2024-01-07T12:26:08;14.23;;;8.48;;
45684;SDS011;46836;48.388;16.210;2024-01-07T12:28:38;10.80;;;8.80;;
45684;SDS011;46836;48.388;16.210;2024-01-07T12:31:06;12.45;;;7.88;;
45684;SDS011;46836;48.388;16.210;2024-01-07T12:33:36;14.07;;;9.10;;
45684;SDS011;46836;48.388;16.210;2024-01-07T12:36:05;12.52;;;8.95;;
45684;SDS011;46836;48.388;16.210;2024-01-07T12:38:36;11.77;;;9.98;;
45684;SDS011;46836;48.388;16.210;2024-01-07T12:41:04;12.63;;;9.82;;
45684;SDS011;46836;48.388;16.210;2024-01-07T12:43:31;10.95;;;9.45;;
45684;SDS011;46836;48.388;16.210;2024-01-07T12:45:59;14.77;;;10.20;;
45684;SDS011;46836;48.388;16.210;2024-01-07T12:48:31;11.85;;;9.25;;
45684;SDS011;46836;48.388;16.210;2024-01-07T12:50:59;11.45;;;9.38;;
45684;SDS011;46836;48.388;16.210;2024-01-07T12:53:28;14.02;;;10.75;;
45684;SDS011;46836;48.388;16.210;2024-01-07T12:55:55;11.45;;;9.23;;
45684;SDS011;46836;48.388;16.210;2024-01-07T12:58:22;13.77;;;8.93;;
45684;SDS011;46836;48.388;16.210;2024-01-07T13:00:49;14.95;;;9.98;;
45684;SDS011;46836;48.388;16.210;2024-01-07T13:03:16;9.10;;;7.25;;
45684;SDS011;46836;48.388;16.210;2024-01-07T13:05:44;12.50;;;8.32;;
45684;SDS011;46836;48.388;16.210;2024-01-07T13:08:12;13.07;;;8.45;;
45684;SDS011;46836;48.388;16.210;2024-01-07T13:10:40;12.23;;;9.40;;
45684;SDS011;46836;48.388;16.210;2024-01-07T13:13:07;13.00;;;9.68;;
45684;SDS011;46836;48.388;16.210;2024-01-07T13:15:41;14.18;;;10.85;;
45684;SDS011;46836;48.388;16.210;2024-01-07T13:18:09;13.15;;;9.70;;
45684;SDS011;46836;48.388;16.210;2024-01-07T13:20:39;13.30;;;10.20;;
45684;SDS011;46836;48.388;16.210;2024-01-07T13:23:06;17.38;;;10.98;;
45684;SDS011;46836;48.388;16.210;2024-01-07T13:25:33;13.68;;;8.68;;
45684;SDS011;46836;48.388;16.210;2024-01-07T13:28:01;11.73;;;9.70;;
45684;SDS011;46836;48.388;16.210;2024-01-07T13:30:29;10.95;;;9.80;;
45684;SDS011;46836;48.388;16.210;2024-01-07T13:32:56;12.25;;;9.75;;
45684;SDS011;46836;48.388;16.210;2024-01-07T13:35:26;12.90;;;8.95;;
45684;SDS011;46836;48.388;16.210;2024-01-07T13:37:54;11.13;;;7.32;;
45684;SDS011;46836;48.388;16.210;2024-01-07T13:40:21;7.75;;;6.68;;
45684;SDS011;46836;48.388;16.210;2024-01-07T13:42:48;10.20;;;8.18;;
45684;SDS011;46836;48.388;16.210;2024-01-07T13:45:17;13.00;;;8.98;;
45684;SDS011;46836;48.388;16.210;2024-01-07T13:47:49;11.40;;;8.02;;
45684;SDS011;46836;48.388;16.210;2024-01-07T13:50:17;11.50;;;7.13;;
45684;SDS011;46836;48.388;16.210;2024-01-07T13:52:44;12.15;;;8.90;;
45684;SDS011;46836;48.388;16.210;2024-01-07T13:55:11;12.40;;;9.73;;
45684;SDS011;46836;48.388;16.210;2024-01-07T13:57:40;13.70;;;10.00;;
45684;SDS011;46836;48.388;16.210;2024-01-07T14:00:08;11.95;;;9.50;;
45684;SDS011;46836;48.388;16.210;2024-01-07T14:02:36;14.52;;;9.25;;
45684;SDS011;46836;48.388;16.210;2024-01-07T14:05:05;11.80;;;9.40;;
45684;SDS011;46836;48.388;16.210;2024-01-07T14:07:33;9.68;;;8.02;;
45684;SDS011;46836;48.388;16.210;2024-01-07T14:10:00;14.00;;;10.00;;
45684;SDS011;46836;48.388;16.210;2024-01-07T14:12:30;10.60;;;9.15;;
45684;SDS011;46836;48.388;16.210;2024-01-07T14:14:57;12.80;;;9.38;;
45684;SDS011;46836;48.388;16.210;2024-01-07T14:17:29;15.02;;;10.48;;
45684;SDS011;46836;48.388;16.210;2024-01-07T14:19:57;14.70;;;10.00;;
45684;SDS011;46836;48.388;16.210;2024-01-07T14:22:24;11.63;;;8.10;;
45684;SDS011;46836;48.388;16.210;2024-01-07T14:24:51;12.20;;;7.65;;
45684;SDS011;46836;48.388;16.210;2024-01-07T14:27:18;13.32;;;10.10;;
45684;SDS011;46836;48.388;16.210;2024-01-07T14:29:45;13.07;;;9.45;;
45684;SDS011;46836;48.388;16.210;2024-01-07T14:32:12;12.52;;;9.35;;
45684;SDS011;46836;48.388;16.210;2024-01-07T14:34:40;12.27;;;9.70;;